sensor_id;sensor_type;location;lat;lon;timestamp;P1;durP1;ratioP1;P2;durP2;ratioP2
20749;SDS011;10535;50.664;4.564;2022-08-19T00:01:25;14.37;;;10.00;;
20749;SDS011;10535;50.664;4.564;2022-08-19T00:03:54;12.23;;;9.00;;
20749;SDS011;10535;50.664;4.564;2022-08-19T00:06:21;14.53;;;10.13;;
20749;SDS011;10535;50.664;4.564;2022-08-19T00:08:46;13.33;;;9.03;;
20749;SDS011;10535;50.664;4.564;2022-08-19T00:11:12;13.47;;;9.60;;
20749;SDS011;10535;50.664;4.564;2022-08-19T00:13:38;13.03;;;9.03;;
20749;SDS011;10535;50.664;4.564;2022-08-19T00:16:04;16.27;;;9.77;;
20749;SDS011;10535;50.664;4.564;2022-08-19T00:18:34;11.90;;;8.60;;
20749;SDS011;10535;50.664;4.564;2022-08-19T00:21:00;12.03;;;8.87;;
20749;SDS011;10535;50.664;4.564;2022-08-19T00:23:26;13.17;;;8.67;;
20749;SDS011;10535;50.664;4.564;2022-08-19T00:25:52;13.07;;;9.60;;
20749;SDS011;10535;50.664;4.564;2022-08-19T00:28:18;14.67;;;9.97;;
20749;SDS011;10535;50.664;4.564;2022-08-19T00:30:45;13.57;;;9.30;;
20749;SDS011;10535;50.664;4.564;2022-08-19T00:33:12;17.10;;;9.40;;
20749;SDS011;10535;50.664;4.564;2022-08-19T00:35:38;15.07;;;8.90;;
20749;SDS011;10535;50.664;4.564;2022-08-19T00:38:04;12.40;;;9.03;;
20749;SDS011;10535;50.664;4.564;2022-08-19T00:40:34;12.50;;;9.27;;
20749;SDS011;10535;50.664;4.564;2022-08-19T00:42:59;13.27;;;9.13;;
20749;SDS011;10535;50.664;4.564;2022-08-19T00:45:26;14.37;;;9.47;;
20749;SDS011;10535;50.664;4.564;2022-08-19T00:47:56;17.57;;;9.77;;
20749;SDS011;10535;50.664;4.564;2022-08-19T00:50:22;11.73;;;7.97;;
20749;SDS011;10535;50.664;4.564;2022-08-19T00:52:49;11.03;;;8.20;;
20749;SDS011;10535;50.664;4.564;2022-08-19T00:55:18;11.57;;;8.77;;
20749;SDS011;10535;50.664;4.564;2022-08-19T00:57:53;15.90;;;9.33;;
20749;SDS011;10535;50.664;4.564;2022-08-19T01:00:23;13.63;;;9.23;;
20749;SDS011;10535;50.664;4.564;2022-08-19T01:02:50;14.57;;;9.37;;
20749;SDS011;10535;50.664;4.564;2022-08-19T01:05:20;15.20;;;9.80;;
20749;SDS011;10535;50.664;4.564;2022-08-19T01:07:48;16.47;;;8.57;;
20749;SDS011;10535;50.664;4.564;2022-08-19T01:10:16;15.37;;;9.37;;
20749;SDS011;10535;50.664;4.564;2022-08-19T01:12:45;17.60;;;10.53;;
20749;SDS011;10535;50.664;4.564;2022-08-19T01:15:12;13.77;;;8.80;;
20749;SDS011;10535;50.664;4.564;2022-08-19T01:17:42;14.83;;;9.43;;
20749;SDS011;10535;50.664;4.564;2022-08-19T01:20:10;13.43;;;9.53;;
20749;SDS011;10535;50.664;4.564;2022-08-19T01:22:41;12.20;;;9.20;;
20749;SDS011;10535;50.664;4.564;2022-08-19T01:25:10;14.93;;;9.10;;
20749;SDS011;10535;50.664;4.564;2022-08-19T01:27:39;16.30;;;11.20;;
20749;SDS011;10535;50.664;4.564;2022-08-19T01:30:08;16.43;;;9.63;;
20749;SDS011;10535;50.664;4.564;2022-08-19T01:32:35;15.10;;;8.93;;
20749;SDS011;10535;50.664;4.564;2022-08-19T01:35:01;14.53;;;9.07;;
20749;SDS011;10535;50.664;4.564;2022-08-19T01:37:29;15.13;;;9.63;;
20749;SDS011;10535;50.664;4.564;2022-08-19T01:39:55;16.30;;;10.80;;
20749;SDS011;10535;50.664;4.564;2022-08-19T01:42:21;17.80;;;10.93;;
20749;SDS011;10535;50.664;4.564;2022-08-19T01:44:47;18.07;;;11.27;;
20749;SDS011;10535;50.664;4.564;2022-08-19T01:47:13;15.83;;;9.57;;
20749;SDS011;10535;50.664;4.564;2022-08-19T01:49:39;18.47;;;10.47;;
20749;SDS011;10535;50.664;4.564;2022-08-19T01:52:06;16.20;;;10.90;;
20749;SDS011;10535;50.664;4.564;2022-08-19T01:54:31;14.60;;;9.87;;
20749;SDS011;10535;50.664;4.564;2022-08-19T01:57:03;16.20;;;10.20;;
20749;SDS011;10535;50.664;4.564;2022-08-19T01:59:33;22.13;;;10.23;;
20749;SDS011;10535;50.664;4.564;2022-08-19T02:02:01;18.00;;;9.87;;
20749;SDS011;10535;50.664;4.564;2022-08-19T02:04:28;23.37;;;11.47;;
20749;SDS011;10535;50.664;4.564;2022-08-19T02:06:53;19.83;;;11.07;;
20749;SDS011;10535;50.664;4.564;2022-08-19T02:09:19;16.37;;;10.27;;
20749;SDS011;10535;50.664;4.564;2022-08-19T02:11:44;15.70;;;10.10;;
20749;SDS011;10535;50.664;4.564;2022-08-19T02:14:10;16.07;;;10.03;;
20749;SDS011;10535;50.664;4.564;2022-08-19T02:16:36;19.50;;;10.43;;
20749;SDS011;10535;50.664;4.564;2022-08-19T02:19:02;17.50;;;10.53;;
20749;SDS011;10535;50.664;4.564;2022-08-19T02:21:29;16.63;;;9.97;;
20749;SDS011;10535;50.664;4.564;2022-08-19T02:23:55;17.30;;;10.57;;
20749;SDS011;10535;50.664;4.564;2022-08-19T02:26:21;14.60;;;9.37;;
20749;SDS011;10535;50.664;4.564;2022-08-19T02:28:48;15.83;;;10.83;;
20749;SDS011;10535;50.664;4.564;2022-08-19T02:31:15;16.23;;;9.83;;
20749;SDS011;10535;50.664;4.564;2022-08-19T02:33:42;15.40;;;9.87;;
20749;SDS011;10535;50.664;4.564;2022-08-19T02:36:10;16.03;;;10.43;;
20749;SDS011;10535;50.664;4.564;2022-08-19T02:38:37;17.90;;;10.73;;
20749;SDS011;10535;50.664;4.564;2022-08-19T02:41:07;16.17;;;10.30;;
20749;SDS011;10535;50.664;4.564;2022-08-19T02:43:37;14.53;;;9.37;;
20749;SDS011;10535;50.664;4.564;2022-08-19T02:46:21;16.33;;;10.50;;
20749;SDS011;10535;50.664;4.564;2022-08-19T02:48:53;16.67;;;10.70;;
20749;SDS011;10535;50.664;4.564;2022-08-19T02:51:29;15.93;;;10.00;;
20749;SDS011;10535;50.664;4.564;2022-08-19T02:54:00;16.77;;;9.87;;
20749;SDS011;10535;50.664;4.564;2022-08-19T02:56:27;16.03;;;10.27;;
20749;SDS011;10535;50.664;4.564;2022-08-19T02:58:53;17.50;;;11.40;;
20749;SDS011;10535;50.664;4.564;2022-08-19T03:03:52;15.77;;;9.70;;
20749;SDS011;10535;50.664;4.564;2022-08-19T03:06:19;19.47;;;10.67;;
20749;SDS011;10535;50.664;4.564;2022-08-19T03:08:45;17.60;;;10.63;;
20749;SDS011;10535;50.664;4.564;2022-08-19T03:11:16;17.93;;;10.30;;
20749;SDS011;10535;50.664;4.564;2022-08-19T03:13:46;19.27;;;10.50;;
20749;SDS011;10535;50.664;4.564;2022-08-19T03:16:15;23.70;;;10.83;;
20749;SDS011;10535;50.664;4.564;2022-08-19T03:18:42;19.20;;;10.13;;
20749;SDS011;10535;50.664;4.564;2022-08-19T03:21:08;16.83;;;9.23;;
20749;SDS011;10535;50.664;4.564;2022-08-19T03:23:34;21.87;;;10.80;;
20749;SDS011;10535;50.664;4.564;2022-08-19T03:26:03;19.83;;;9.37;;
20749;SDS011;10535;50.664;4.564;2022-08-19T03:28:30;19.70;;;10.33;;
20749;SDS011;10535;50.664;4.564;2022-08-19T03:30:57;15.97;;;9.83;;
20749;SDS011;10535;50.664;4.564;2022-08-19T03:33:24;16.63;;;9.53;;
20749;SDS011;10535;50.664;4.564;2022-08-19T03:36:01;18.77;;;9.80;;
20749;SDS011;10535;50.664;4.564;2022-08-19T03:38:36;17.70;;;9.47;;
20749;SDS011;10535;50.664;4.564;2022-08-19T03:41:08;19.13;;;10.00;;
20749;SDS011;10535;50.664;4.564;2022-08-19T03:43:36;18.17;;;11.20;;
20749;SDS011;10535;50.664;4.564;2022-08-19T03:46:05;20.93;;;10.10;;
20749;SDS011;10535;50.664;4.564;2022-08-19T03:48:33;17.77;;;10.50;;
20749;SDS011;10535;50.664;4.564;2022-08-19T03:50:59;18.00;;;10.37;;
20749;SDS011;10535;50.664;4.564;2022-08-19T03:53:26;18.17;;;9.70;;
20749;SDS011;10535;50.664;4.564;2022-08-19T03:55:52;18.50;;;10.07;;
20749;SDS011;10535;50.664;4.564;2022-08-19T03:58:19;21.17;;;10.40;;
20749;SDS011;10535;50.664;4.564;2022-08-19T04:00:45;22.43;;;10.30;;
20749;SDS011;10535;50.664;4.564;2022-08-19T04:03:12;19.80;;;10.60;;
20749;SDS011;10535;50.664;4.564;2022-08-19T04:05:38;20.13;;;9.53;;
20749;SDS011;10535;50.664;4.564;2022-08-19T04:08:04;20.27;;;10.10;;
20749;SDS011;10535;50.664;4.564;2022-08-19T04:10:31;22.67;;;11.40;;
20749;SDS011;10535;50.664;4.564;2022-08-19T04:13:03;20.27;;;10.23;;
20749;SDS011;10535;50.664;4.564;2022-08-19T04:15:31;22.03;;;9.67;;
20749;SDS011;10535;50.664;4.564;2022-08-19T04:18:03;19.83;;;10.40;;
20749;SDS011;10535;50.664;4.564;2022-08-19T04:20:31;19.93;;;11.00;;
20749;SDS011;10535;50.664;4.564;2022-08-19T04:22:56;22.17;;;10.67;;
20749;SDS011;10535;50.664;4.564;2022-08-19T04:25:22;21.93;;;11.07;;
20749;SDS011;10535;50.664;4.564;2022-08-19T04:27:47;22.30;;;9.93;;
20749;SDS011;10535;50.664;4.564;2022-08-19T04:30:13;24.80;;;11.83;;
20749;SDS011;10535;50.664;4.564;2022-08-19T04:32:39;23.20;;;11.43;;
20749;SDS011;10535;50.664;4.564;2022-08-19T04:35:08;25.63;;;12.83;;
20749;SDS011;10535;50.664;4.564;2022-08-19T04:37:34;28.30;;;12.23;;
20749;SDS011;10535;50.664;4.564;2022-08-19T04:39:59;24.30;;;11.80;;
20749;SDS011;10535;50.664;4.564;2022-08-19T04:42:44;24.00;;;11.17;;
20749;SDS011;10535;50.664;4.564;2022-08-19T04:45:11;27.60;;;11.60;;
20749;SDS011;10535;50.664;4.564;2022-08-19T04:47:40;29.93;;;12.93;;
20749;SDS011;10535;50.664;4.564;2022-08-19T04:50:07;25.60;;;11.60;;
20749;SDS011;10535;50.664;4.564;2022-08-19T04:52:36;28.60;;;12.37;;
20749;SDS011;10535;50.664;4.564;2022-08-19T04:55:07;24.50;;;11.73;;
20749;SDS011;10535;50.664;4.564;2022-08-19T04:57:34;23.77;;;11.20;;
20749;SDS011;10535;50.664;4.564;2022-08-19T05:00:06;31.67;;;12.57;;
20749;SDS011;10535;50.664;4.564;2022-08-19T05:02:35;27.13;;;11.80;;
20749;SDS011;10535;50.664;4.564;2022-08-19T05:05:00;23.00;;;11.07;;
20749;SDS011;10535;50.664;4.564;2022-08-19T05:07:26;21.33;;;10.13;;
20749;SDS011;10535;50.664;4.564;2022-08-19T05:09:52;21.30;;;10.23;;
20749;SDS011;10535;50.664;4.564;2022-08-19T05:12:18;16.67;;;8.80;;
20749;SDS011;10535;50.664;4.564;2022-08-19T05:14:44;19.17;;;9.50;;
20749;SDS011;10535;50.664;4.564;2022-08-19T05:17:12;20.90;;;10.30;;
20749;SDS011;10535;50.664;4.564;2022-08-19T05:19:38;17.87;;;8.93;;
20749;SDS011;10535;50.664;4.564;2022-08-19T05:22:22;16.57;;;7.93;;
20749;SDS011;10535;50.664;4.564;2022-08-19T05:24:57;16.67;;;8.97;;
20749;SDS011;10535;50.664;4.564;2022-08-19T05:27:23;15.33;;;7.93;;
20749;SDS011;10535;50.664;4.564;2022-08-19T05:29:49;13.40;;;7.33;;
20749;SDS011;10535;50.664;4.564;2022-08-19T05:32:15;16.67;;;8.27;;
20749;SDS011;10535;50.664;4.564;2022-08-19T05:34:41;12.90;;;6.70;;
20749;SDS011;10535;50.664;4.564;2022-08-19T05:37:06;16.07;;;7.73;;
20749;SDS011;10535;50.664;4.564;2022-08-19T05:39:34;13.53;;;7.43;;
20749;SDS011;10535;50.664;4.564;2022-08-19T05:42:03;12.40;;;6.93;;
20749;SDS011;10535;50.664;4.564;2022-08-19T05:44:32;16.93;;;6.93;;
20749;SDS011;10535;50.664;4.564;2022-08-19T05:47:01;18.97;;;8.80;;
20749;SDS011;10535;50.664;4.564;2022-08-19T05:49:29;14.30;;;8.03;;
20749;SDS011;10535;50.664;4.564;2022-08-19T05:51:56;17.67;;;8.13;;
20749;SDS011;10535;50.664;4.564;2022-08-19T05:54:24;18.10;;;8.70;;
20749;SDS011;10535;50.664;4.564;2022-08-19T05:56:51;18.70;;;8.07;;
20749;SDS011;10535;50.664;4.564;2022-08-19T05:59:17;17.07;;;8.33;;
20749;SDS011;10535;50.664;4.564;2022-08-19T06:01:46;20.27;;;10.20;;
20749;SDS011;10535;50.664;4.564;2022-08-19T06:04:15;15.00;;;8.50;;
20749;SDS011;10535;50.664;4.564;2022-08-19T06:06:45;20.73;;;9.67;;
20749;SDS011;10535;50.664;4.564;2022-08-19T06:09:16;20.77;;;10.10;;
20749;SDS011;10535;50.664;4.564;2022-08-19T06:11:44;14.43;;;9.13;;
20749;SDS011;10535;50.664;4.564;2022-08-19T06:14:14;16.97;;;9.70;;
20749;SDS011;10535;50.664;4.564;2022-08-19T06:16:41;16.07;;;8.87;;
20749;SDS011;10535;50.664;4.564;2022-08-19T06:19:09;16.97;;;9.90;;
20749;SDS011;10535;50.664;4.564;2022-08-19T06:21:37;16.73;;;9.37;;
20749;SDS011;10535;50.664;4.564;2022-08-19T06:24:06;15.03;;;8.70;;
20749;SDS011;10535;50.664;4.564;2022-08-19T06:26:35;17.17;;;9.07;;
20749;SDS011;10535;50.664;4.564;2022-08-19T06:29:03;16.50;;;8.90;;
20749;SDS011;10535;50.664;4.564;2022-08-19T06:31:33;18.20;;;9.73;;
20749;SDS011;10535;50.664;4.564;2022-08-19T06:34:00;18.10;;;9.47;;
20749;SDS011;10535;50.664;4.564;2022-08-19T06:36:32;20.77;;;9.07;;
20749;SDS011;10535;50.664;4.564;2022-08-19T06:39:04;19.43;;;9.97;;
20749;SDS011;10535;50.664;4.564;2022-08-19T06:41:34;18.37;;;9.80;;
20749;SDS011;10535;50.664;4.564;2022-08-19T06:44:04;17.27;;;9.53;;
20749;SDS011;10535;50.664;4.564;2022-08-19T06:46:30;21.10;;;10.33;;
20749;SDS011;10535;50.664;4.564;2022-08-19T06:48:56;20.13;;;10.00;;
20749;SDS011;10535;50.664;4.564;2022-08-19T06:51:22;13.43;;;8.63;;
20749;SDS011;10535;50.664;4.564;2022-08-19T06:53:49;17.13;;;9.37;;
20749;SDS011;10535;50.664;4.564;2022-08-19T06:56:19;15.97;;;9.00;;
20749;SDS011;10535;50.664;4.564;2022-08-19T06:58:50;16.20;;;8.43;;
20749;SDS011;10535;50.664;4.564;2022-08-19T07:01:18;14.90;;;8.67;;
20749;SDS011;10535;50.664;4.564;2022-08-19T07:03:46;15.77;;;7.77;;
20749;SDS011;10535;50.664;4.564;2022-08-19T07:06:13;14.87;;;8.87;;
20749;SDS011;10535;50.664;4.564;2022-08-19T07:08:44;15.03;;;8.53;;
20749;SDS011;10535;50.664;4.564;2022-08-19T07:11:12;18.57;;;8.70;;
20749;SDS011;10535;50.664;4.564;2022-08-19T07:13:42;15.00;;;8.57;;
20749;SDS011;10535;50.664;4.564;2022-08-19T07:16:15;11.20;;;6.77;;
20749;SDS011;10535;50.664;4.564;2022-08-19T07:18:44;13.68;;;6.45;;
20749;SDS011;10535;50.664;4.564;2022-08-19T07:21:15;11.70;;;6.77;;
20749;SDS011;10535;50.664;4.564;2022-08-19T07:23:47;10.83;;;6.10;;
20749;SDS011;10535;50.664;4.564;2022-08-19T07:28:41;10.03;;;4.97;;
20749;SDS011;10535;50.664;4.564;2022-08-19T07:31:10;5.90;;;4.17;;
20749;SDS011;10535;50.664;4.564;2022-08-19T07:33:38;8.80;;;4.20;;
20749;SDS011;10535;50.664;4.564;2022-08-19T07:36:08;8.03;;;3.77;;
20749;SDS011;10535;50.664;4.564;2022-08-19T07:38:39;9.50;;;4.67;;
20749;SDS011;10535;50.664;4.564;2022-08-19T07:41:08;8.50;;;4.67;;
20749;SDS011;10535;50.664;4.564;2022-08-19T07:43:35;7.57;;;4.63;;
20749;SDS011;10535;50.664;4.564;2022-08-19T07:46:01;6.77;;;4.10;;
20749;SDS011;10535;50.664;4.564;2022-08-19T07:48:27;7.37;;;3.80;;
20749;SDS011;10535;50.664;4.564;2022-08-19T07:50:54;5.77;;;3.80;;
20749;SDS011;10535;50.664;4.564;2022-08-19T07:53:23;7.73;;;3.93;;
20749;SDS011;10535;50.664;4.564;2022-08-19T07:55:49;7.37;;;3.50;;
20749;SDS011;10535;50.664;4.564;2022-08-19T07:58:18;4.97;;;2.73;;
20749;SDS011;10535;50.664;4.564;2022-08-19T08:00:46;4.70;;;3.37;;
20749;SDS011;10535;50.664;4.564;2022-08-19T08:03:13;5.17;;;2.83;;
20749;SDS011;10535;50.664;4.564;2022-08-19T08:05:40;6.03;;;3.13;;
20749;SDS011;10535;50.664;4.564;2022-08-19T08:08:25;5.70;;;3.37;;
20749;SDS011;10535;50.664;4.564;2022-08-19T08:11:09;4.23;;;2.87;;
20749;SDS011;10535;50.664;4.564;2022-08-19T08:13:36;4.40;;;2.40;;
20749;SDS011;10535;50.664;4.564;2022-08-19T08:16:01;5.23;;;3.10;;
20749;SDS011;10535;50.664;4.564;2022-08-19T08:18:28;5.37;;;2.87;;
20749;SDS011;10535;50.664;4.564;2022-08-19T08:20:54;2.77;;;2.27;;
20749;SDS011;10535;50.664;4.564;2022-08-19T08:23:20;5.00;;;3.38;;
20749;SDS011;10535;50.664;4.564;2022-08-19T08:25:54;4.27;;;2.37;;
20749;SDS011;10535;50.664;4.564;2022-08-19T08:28:31;3.03;;;2.42;;
20749;SDS011;10535;50.664;4.564;2022-08-19T08:30:57;4.30;;;2.20;;
20749;SDS011;10535;50.664;4.564;2022-08-19T08:33:24;3.50;;;2.03;;
20749;SDS011;10535;50.664;4.564;2022-08-19T08:35:51;3.20;;;2.10;;
20749;SDS011;10535;50.664;4.564;2022-08-19T08:38:18;3.33;;;2.28;;
20749;SDS011;10535;50.664;4.564;2022-08-19T08:40:45;4.97;;;2.25;;
20749;SDS011;10535;50.664;4.564;2022-08-19T08:46:06;2.88;;;1.83;;
20749;SDS011;10535;50.664;4.564;2022-08-19T08:51:14;2.53;;;1.98;;
20749;SDS011;10535;50.664;4.564;2022-08-19T08:53:45;2.65;;;2.00;;
20749;SDS011;10535;50.664;4.564;2022-08-19T08:56:14;2.83;;;1.80;;
20749;SDS011;10535;50.664;4.564;2022-08-19T09:01:18;3.55;;;2.15;;
20749;SDS011;10535;50.664;4.564;2022-08-19T09:03:44;5.93;;;3.00;;
20749;SDS011;10535;50.664;4.564;2022-08-19T09:12:00;3.65;;;2.20;;
20749;SDS011;10535;50.664;4.564;2022-08-19T09:16:56;3.40;;;2.30;;
20749;SDS011;10535;50.664;4.564;2022-08-19T09:19:22;3.88;;;2.10;;
20749;SDS011;10535;50.664;4.564;2022-08-19T09:21:48;3.85;;;2.15;;
20749;SDS011;10535;50.664;4.564;2022-08-19T09:24:15;4.70;;;2.88;;
20749;SDS011;10535;50.664;4.564;2022-08-19T09:26:40;3.25;;;2.03;;
20749;SDS011;10535;50.664;4.564;2022-08-19T09:29:08;7.35;;;3.35;;
20749;SDS011;10535;50.664;4.564;2022-08-19T09:31:34;2.88;;;2.03;;
20749;SDS011;10535;50.664;4.564;2022-08-19T09:34:00;3.17;;;2.25;;
20749;SDS011;10535;50.664;4.564;2022-08-19T09:36:28;4.22;;;2.72;;
20749;SDS011;10535;50.664;4.564;2022-08-19T09:38:57;4.28;;;2.53;;
20749;SDS011;10535;50.664;4.564;2022-08-19T09:41:23;3.22;;;1.73;;
20749;SDS011;10535;50.664;4.564;2022-08-19T09:43:50;3.53;;;1.95;;
20749;SDS011;10535;50.664;4.564;2022-08-19T09:46:20;2.40;;;1.88;;
20749;SDS011;10535;50.664;4.564;2022-08-19T09:48:48;2.50;;;1.40;;
20749;SDS011;10535;50.664;4.564;2022-08-19T09:51:16;3.63;;;1.98;;
20749;SDS011;10535;50.664;4.564;2022-08-19T09:53:45;4.28;;;2.80;;
20749;SDS011;10535;50.664;4.564;2022-08-19T09:56:12;5.50;;;2.90;;
20749;SDS011;10535;50.664;4.564;2022-08-19T09:58:38;4.25;;;2.80;;
20749;SDS011;10535;50.664;4.564;2022-08-19T10:01:05;6.45;;;3.10;;
20749;SDS011;10535;50.664;4.564;2022-08-19T10:03:32;7.28;;;3.85;;
20749;SDS011;10535;50.664;4.564;2022-08-19T10:06:00;6.20;;;4.07;;
20749;SDS011;10535;50.664;4.564;2022-08-19T10:08:29;6.13;;;3.47;;
20749;SDS011;10535;50.664;4.564;2022-08-19T10:10:58;8.85;;;3.92;;
20749;SDS011;10535;50.664;4.564;2022-08-19T10:13:25;10.00;;;4.38;;
20749;SDS011;10535;50.664;4.564;2022-08-19T10:15:53;11.73;;;5.05;;
20749;SDS011;10535;50.664;4.564;2022-08-19T10:18:21;6.40;;;4.13;;
20749;SDS011;10535;50.664;4.564;2022-08-19T10:20:49;7.85;;;4.55;;
20749;SDS011;10535;50.664;4.564;2022-08-19T10:23:16;7.35;;;4.53;;
20749;SDS011;10535;50.664;4.564;2022-08-19T10:25:42;6.57;;;3.97;;
20749;SDS011;10535;50.664;4.564;2022-08-19T10:28:08;8.05;;;4.07;;
20749;SDS011;10535;50.664;4.564;2022-08-19T10:30:37;9.50;;;4.30;;
20749;SDS011;10535;50.664;4.564;2022-08-19T10:33:06;7.30;;;3.75;;
20749;SDS011;10535;50.664;4.564;2022-08-19T10:35:32;5.35;;;3.40;;
20749;SDS011;10535;50.664;4.564;2022-08-19T10:37:58;5.20;;;3.65;;
20749;SDS011;10535;50.664;4.564;2022-08-19T10:40:25;4.82;;;3.70;;
20749;SDS011;10535;50.664;4.564;2022-08-19T10:42:52;7.63;;;3.80;;
20749;SDS011;10535;50.664;4.564;2022-08-19T10:45:19;8.75;;;3.88;;
20749;SDS011;10535;50.664;4.564;2022-08-19T10:47:47;8.05;;;3.63;;
20749;SDS011;10535;50.664;4.564;2022-08-19T10:50:12;4.80;;;3.05;;
20749;SDS011;10535;50.664;4.564;2022-08-19T10:52:56;4.97;;;2.72;;
20749;SDS011;10535;50.664;4.564;2022-08-19T10:55:23;4.85;;;2.83;;
20749;SDS011;10535;50.664;4.564;2022-08-19T10:58:12;3.90;;;2.58;;
20749;SDS011;10535;50.664;4.564;2022-08-19T11:00:38;4.88;;;3.45;;
20749;SDS011;10535;50.664;4.564;2022-08-19T11:03:15;4.50;;;2.90;;
20749;SDS011;10535;50.664;4.564;2022-08-19T11:05:41;4.93;;;3.17;;
20749;SDS011;10535;50.664;4.564;2022-08-19T11:08:07;6.13;;;3.33;;
20749;SDS011;10535;50.664;4.564;2022-08-19T11:10:36;10.23;;;4.15;;
20749;SDS011;10535;50.664;4.564;2022-08-19T11:13:05;7.70;;;4.38;;
20749;SDS011;10535;50.664;4.564;2022-08-19T11:15:31;5.93;;;3.90;;
20749;SDS011;10535;50.664;4.564;2022-08-19T11:17:57;6.15;;;3.20;;
20749;SDS011;10535;50.664;4.564;2022-08-19T11:20:22;5.03;;;2.90;;
20749;SDS011;10535;50.664;4.564;2022-08-19T11:22:48;4.10;;;2.50;;
20749;SDS011;10535;50.664;4.564;2022-08-19T11:25:18;3.35;;;2.22;;
20749;SDS011;10535;50.664;4.564;2022-08-19T11:27:44;6.88;;;4.05;;
20749;SDS011;10535;50.664;4.564;2022-08-19T11:30:11;6.45;;;4.03;;
20749;SDS011;10535;50.664;4.564;2022-08-19T11:32:38;6.85;;;3.83;;
20749;SDS011;10535;50.664;4.564;2022-08-19T11:35:04;6.38;;;4.20;;
20749;SDS011;10535;50.664;4.564;2022-08-19T11:37:30;6.30;;;3.40;;
20749;SDS011;10535;50.664;4.564;2022-08-19T11:39:57;5.25;;;3.75;;
20749;SDS011;10535;50.664;4.564;2022-08-19T11:42:23;8.57;;;5.00;;
20749;SDS011;10535;50.664;4.564;2022-08-19T11:45:07;8.18;;;5.20;;
20749;SDS011;10535;50.664;4.564;2022-08-19T11:47:32;8.65;;;4.97;;
20749;SDS011;10535;50.664;4.564;2022-08-19T11:49:58;12.70;;;6.22;;
20749;SDS011;10535;50.664;4.564;2022-08-19T11:52:24;10.35;;;5.75;;
20749;SDS011;10535;50.664;4.564;2022-08-19T11:54:51;12.70;;;6.20;;
20749;SDS011;10535;50.664;4.564;2022-08-19T11:57:17;10.10;;;5.80;;
20749;SDS011;10535;50.664;4.564;2022-08-19T11:59:48;10.40;;;6.15;;
20749;SDS011;10535;50.664;4.564;2022-08-19T12:02:15;7.90;;;5.90;;
20749;SDS011;10535;50.664;4.564;2022-08-19T12:04:40;11.07;;;5.72;;
20749;SDS011;10535;50.664;4.564;2022-08-19T12:07:06;6.82;;;4.38;;
20749;SDS011;10535;50.664;4.564;2022-08-19T12:09:31;7.95;;;4.70;;
20749;SDS011;10535;50.664;4.564;2022-08-19T12:12:00;7.95;;;4.95;;
20749;SDS011;10535;50.664;4.564;2022-08-19T12:14:27;6.05;;;4.05;;
20749;SDS011;10535;50.664;4.564;2022-08-19T12:16:55;5.57;;;3.85;;
20749;SDS011;10535;50.664;4.564;2022-08-19T12:19:20;6.30;;;3.60;;
20749;SDS011;10535;50.664;4.564;2022-08-19T12:21:46;5.68;;;3.88;;
20749;SDS011;10535;50.664;4.564;2022-08-19T12:24:12;4.80;;;3.45;;
20749;SDS011;10535;50.664;4.564;2022-08-19T12:26:38;4.95;;;3.30;;
20749;SDS011;10535;50.664;4.564;2022-08-19T12:29:05;7.43;;;3.70;;
20749;SDS011;10535;50.664;4.564;2022-08-19T12:31:31;5.35;;;3.90;;
20749;SDS011;10535;50.664;4.564;2022-08-19T12:34:04;3.05;;;2.75;;
20749;SDS011;10535;50.664;4.564;2022-08-19T12:36:33;5.05;;;2.92;;
20749;SDS011;10535;50.664;4.564;2022-08-19T12:38:59;3.67;;;2.50;;
20749;SDS011;10535;50.664;4.564;2022-08-19T12:41:26;3.25;;;2.53;;
20749;SDS011;10535;50.664;4.564;2022-08-19T12:43:52;6.75;;;2.60;;
20749;SDS011;10535;50.664;4.564;2022-08-19T12:46:19;3.95;;;3.08;;
20749;SDS011;10535;50.664;4.564;2022-08-19T12:48:46;4.47;;;3.28;;
20749;SDS011;10535;50.664;4.564;2022-08-19T12:51:13;4.38;;;3.33;;
20749;SDS011;10535;50.664;4.564;2022-08-19T12:53:41;5.30;;;3.30;;
20749;SDS011;10535;50.664;4.564;2022-08-19T12:56:07;5.80;;;3.72;;
20749;SDS011;10535;50.664;4.564;2022-08-19T12:58:34;6.05;;;4.15;;
20749;SDS011;10535;50.664;4.564;2022-08-19T13:01:09;6.32;;;3.97;;
20749;SDS011;10535;50.664;4.564;2022-08-19T13:03:37;4.80;;;3.15;;
20749;SDS011;10535;50.664;4.564;2022-08-19T13:06:17;5.00;;;3.70;;
20749;SDS011;10535;50.664;4.564;2022-08-19T13:08:43;3.88;;;3.17;;
20749;SDS011;10535;50.664;4.564;2022-08-19T13:11:12;4.20;;;3.30;;
20749;SDS011;10535;50.664;4.564;2022-08-19T13:13:41;3.83;;;3.17;;
20749;SDS011;10535;50.664;4.564;2022-08-19T13:16:13;5.05;;;2.55;;
20749;SDS011;10535;50.664;4.564;2022-08-19T13:18:40;6.00;;;3.42;;
20749;SDS011;10535;50.664;4.564;2022-08-19T13:21:08;3.63;;;2.45;;
20749;SDS011;10535;50.664;4.564;2022-08-19T13:23:36;2.83;;;2.10;;
20749;SDS011;10535;50.664;4.564;2022-08-19T13:26:03;3.28;;;2.38;;
20749;SDS011;10535;50.664;4.564;2022-08-19T13:28:31;2.17;;;1.98;;
20749;SDS011;10535;50.664;4.564;2022-08-19T13:31:16;3.65;;;2.28;;
20749;SDS011;10535;50.664;4.564;2022-08-19T13:34:02;3.50;;;2.80;;
20749;SDS011;10535;50.664;4.564;2022-08-19T13:36:28;3.13;;;2.33;;
20749;SDS011;10535;50.664;4.564;2022-08-19T13:38:53;6.05;;;3.47;;
20749;SDS011;10535;50.664;4.564;2022-08-19T13:41:19;3.35;;;2.47;;
20749;SDS011;10535;50.664;4.564;2022-08-19T13:43:53;2.47;;;2.00;;
20749;SDS011;10535;50.664;4.564;2022-08-19T13:46:19;3.63;;;2.55;;
20749;SDS011;10535;50.664;4.564;2022-08-19T13:49:13;5.60;;;2.70;;
20749;SDS011;10535;50.664;4.564;2022-08-19T13:51:52;2.97;;;2.28;;
20749;SDS011;10535;50.664;4.564;2022-08-19T13:54:19;2.85;;;2.30;;
20749;SDS011;10535;50.664;4.564;2022-08-19T13:56:49;2.63;;;1.92;;
20749;SDS011;10535;50.664;4.564;2022-08-19T13:59:19;2.72;;;1.90;;
20749;SDS011;10535;50.664;4.564;2022-08-19T14:01:58;1.90;;;1.60;;
20749;SDS011;10535;50.664;4.564;2022-08-19T14:04:29;1.42;;;1.17;;
20749;SDS011;10535;50.664;4.564;2022-08-19T14:06:55;2.53;;;0.93;;
20749;SDS011;10535;50.664;4.564;2022-08-19T14:09:20;2.25;;;1.08;;
20749;SDS011;10535;50.664;4.564;2022-08-19T14:11:46;1.60;;;0.85;;
20749;SDS011;10535;50.664;4.564;2022-08-19T14:14:12;2.47;;;0.90;;
20749;SDS011;10535;50.664;4.564;2022-08-19T14:16:40;0.88;;;0.82;;
20749;SDS011;10535;50.664;4.564;2022-08-19T14:19:16;2.35;;;1.02;;
20749;SDS011;10535;50.664;4.564;2022-08-19T14:21:42;0.90;;;0.90;;
20749;SDS011;10535;50.664;4.564;2022-08-19T14:24:10;1.52;;;1.10;;
20749;SDS011;10535;50.664;4.564;2022-08-19T14:26:36;2.20;;;1.30;;
20749;SDS011;10535;50.664;4.564;2022-08-19T14:29:02;2.22;;;1.13;;
20749;SDS011;10535;50.664;4.564;2022-08-19T14:36:45;1.13;;;1.00;;
20749;SDS011;10535;50.664;4.564;2022-08-19T14:39:11;1.02;;;0.95;;
20749;SDS011;10535;50.664;4.564;2022-08-19T14:41:39;1.38;;;1.27;;
20749;SDS011;10535;50.664;4.564;2022-08-19T14:44:18;3.22;;;1.30;;
20749;SDS011;10535;50.664;4.564;2022-08-19T14:47:04;1.33;;;1.23;;
20749;SDS011;10535;50.664;4.564;2022-08-19T14:49:34;2.22;;;1.20;;
20749;SDS011;10535;50.664;4.564;2022-08-19T14:52:00;0.80;;;0.80;;
20749;SDS011;10535;50.664;4.564;2022-08-19T14:54:28;2.22;;;0.80;;
20749;SDS011;10535;50.664;4.564;2022-08-19T14:56:54;0.60;;;0.60;;
20749;SDS011;10535;50.664;4.564;2022-08-19T14:59:43;1.13;;;0.60;;
20749;SDS011;10535;50.664;4.564;2022-08-19T15:03:03;1.90;;;0.70;;
20749;SDS011;10535;50.664;4.564;2022-08-19T15:05:53;1.27;;;0.98;;
20749;SDS011;10535;50.664;4.564;2022-08-19T15:08:20;0.75;;;0.70;;
20749;SDS011;10535;50.664;4.564;2022-08-19T15:10:47;0.98;;;0.88;;
20749;SDS011;10535;50.664;4.564;2022-08-19T15:13:14;0.60;;;0.60;;